sensor_id;sensor_type;location;lat;lon;timestamp;temperature;humidity
74384;DHT22;62824;52.994;-3.936;2023-02-20T00:01:14;8.20;99.90
74384;DHT22;62824;52.994;-3.936;2023-02-20T00:03:40;8.20;99.90
74384;DHT22;62824;52.994;-3.936;2023-02-20T00:06:05;8.30;99.90
74384;DHT22;62824;52.994;-3.936;2023-02-20T00:08:31;8.20;99.90
74384;DHT22;62824;52.994;-3.936;2023-02-20T00:10:57;8.20;99.90
74384;DHT22;62824;52.994;-3.936;2023-02-20T00:13:23;8.20;99.90
74384;DHT22;62824;52.994;-3.936;2023-02-20T00:15:49;8.20;99.90
74384;DHT22;62824;52.994;-3.936;2023-02-20T00:18:14;8.20;99.90
74384;DHT22;62824;52.994;-3.936;2023-02-20T00:20:40;8.20;99.90
74384;DHT22;62824;52.994;-3.936;2023-02-20T00:23:06;8.30;99.90
74384;DHT22;62824;52.994;-3.936;2023-02-20T00:25:31;8.20;99.90
74384;DHT22;62824;52.994;-3.936;2023-02-20T00:27:57;8.30;99.90
74384;DHT22;62824;52.994;-3.936;2023-02-20T00:30:23;8.30;99.90
74384;DHT22;62824;52.994;-3.936;2023-02-20T00:32:51;8.20;99.90
74384;DHT22;62824;52.994;-3.936;2023-02-20T00:35:18;8.20;99.90
74384;DHT22;62824;52.994;-3.936;2023-02-20T00:37:47;8.20;99.90
74384;DHT22;62824;52.994;-3.936;2023-02-20T00:40:14;8.20;99.90
74384;DHT22;62824;52.994;-3.936;2023-02-20T00:42:40;8.20;99.90
74384;DHT22;62824;52.994;-3.936;2023-02-20T00:45:06;8.20;99.90
74384;DHT22;62824;52.994;-3.936;2023-02-20T00:47:32;8.30;99.90
74384;DHT22;62824;52.994;-3.936;2023-02-20T00:49:58;8.20;99.90
74384;DHT22;62824;52.994;-3.936;2023-02-20T00:52:24;8.20;99.90
74384;DHT22;62824;52.994;-3.936;2023-02-20T00:54:50;8.20;99.90
74384;DHT22;62824;52.994;-3.936;2023-02-20T00:57:15;8.20;99.90
74384;DHT22;62824;52.994;-3.936;2023-02-20T00:59:41;8.20;99.90
74384;DHT22;62824;52.994;-3.936;2023-02-20T01:02:07;8.20;99.90
74384;DHT22;62824;52.994;-3.936;2023-02-20T01:04:33;8.20;99.90
74384;DHT22;62824;52.994;-3.936;2023-02-20T01:06:59;8.20;99.90
74384;DHT22;62824;52.994;-3.936;2023-02-20T01:09:24;8.20;99.90
74384;DHT22;62824;52.994;-3.936;2023-02-20T01:11:53;8.20;99.90
74384;DHT22;62824;52.994;-3.936;2023-02-20T01:14:19;8.30;99.90
74384;DHT22;62824;52.994;-3.936;2023-02-20T01:16:50;8.20;99.90
74384;DHT22;62824;52.994;-3.936;2023-02-20T01:19:18;8.20;99.90
74384;DHT22;62824;52.994;-3.936;2023-02-20T01:21:44;8.20;99.90
74384;DHT22;62824;52.994;-3.936;2023-02-20T01:24:09;8.20;99.90
74384;DHT22;62824;52.994;-3.936;2023-02-20T01:26:35;8.20;99.90
74384;DHT22;62824;52.994;-3.936;2023-02-20T01:29:02;8.20;99.90
74384;DHT22;62824;52.994;-3.936;2023-02-20T01:31:28;8.20;99.90
74384;DHT22;62824;52.994;-3.936;2023-02-20T01:33:54;8.20;99.90
74384;DHT22;62824;52.994;-3.936;2023-02-20T01:36:20;8.20;99.90
74384;DHT22;62824;52.994;-3.936;2023-02-20T01:38:46;8.30;99.90
74384;DHT22;62824;52.994;-3.936;2023-02-20T01:41:13;8.30;99.90
74384;DHT22;62824;52.994;-3.936;2023-02-20T01:43:39;8.30;99.90
74384;DHT22;62824;52.994;-3.936;2023-02-20T01:49:12;8.20;99.90
74384;DHT22;62824;52.994;-3.936;2023-02-20T01:51:43;8.20;99.90
74384;DHT22;62824;52.994;-3.936;2023-02-20T01:54:14;8.20;99.90
74384;DHT22;62824;52.994;-3.936;2023-02-20T01:56:42;8.20;99.90
74384;DHT22;62824;52.994;-3.936;2023-02-20T01:59:09;8.20;99.90
74384;DHT22;62824;52.994;-3.936;2023-02-20T02:01:34;8.20;99.90
74384;DHT22;62824;52.994;-3.936;2023-02-20T02:04:03;8.20;99.90
74384;DHT22;62824;52.994;-3.936;2023-02-20T02:06:32;8.20;99.90
74384;DHT22;62824;52.994;-3.936;2023-02-20T02:09:02;8.20;99.90
74384;DHT22;62824;52.994;-3.936;2023-02-20T02:11:33;8.20;99.90
74384;DHT22;62824;52.994;-3.936;2023-02-20T02:14:01;8.20;99.90
74384;DHT22;62824;52.994;-3.936;2023-02-20T02:16:50;8.20;99.90
74384;DHT22;62824;52.994;-3.936;2023-02-20T02:41:42;8.20;99.90
74384;DHT22;62824;52.994;-3.936;2023-02-20T02:44:35;8.10;99.90
74384;DHT22;62824;52.994;-3.936;2023-02-20T02:47:11;8.20;99.90
74384;DHT22;62824;52.994;-3.936;2023-02-20T02:52:04;8.20;99.90
74384;DHT22;62824;52.994;-3.936;2023-02-20T02:54:30;8.10;99.90
74384;DHT22;62824;52.994;-3.936;2023-02-20T02:57:16;8.20;99.90
74384;DHT22;62824;52.994;-3.936;2023-02-20T02:59:44;8.20;99.90
74384;DHT22;62824;52.994;-3.936;2023-02-20T03:02:12;8.20;99.90
74384;DHT22;62824;52.994;-3.936;2023-02-20T03:04:40;8.20;99.90
74384;DHT22;62824;52.994;-3.936;2023-02-20T03:07:10;8.20;99.90
74384;DHT22;62824;52.994;-3.936;2023-02-20T03:09:44;8.20;99.90
74384;DHT22;62824;52.994;-3.936;2023-02-20T03:12:12;8.20;99.90
74384;DHT22;62824;52.994;-3.936;2023-02-20T03:14:49;8.20;99.90
74384;DHT22;62824;52.994;-3.936;2023-02-20T03:20:25;8.20;99.90
74384;DHT22;62824;52.994;-3.936;2023-02-20T03:23:03;8.20;99.90
74384;DHT22;62824;52.994;-3.936;2023-02-20T03:25:36;8.20;99.90
74384;DHT22;62824;52.994;-3.936;2023-02-20T03:28:15;8.20;99.90
74384;DHT22;62824;52.994;-3.936;2023-02-20T03:30:44;8.20;99.90
74384;DHT22;62824;52.994;-3.936;2023-02-20T03:33:28;8.20;99.90
74384;DHT22;62824;52.994;-3.936;2023-02-20T03:36:25;8.20;99.90
74384;DHT22;62824;52.994;-3.936;2023-02-20T03:39:16;8.20;99.90
74384;DHT22;62824;52.994;-3.936;2023-02-20T03:42:05;8.20;99.90
74384;DHT22;62824;52.994;-3.936;2023-02-20T03:44:50;8.20;99.90
74384;DHT22;62824;52.994;-3.936;2023-02-20T03:47:18;8.10;99.90
74384;DHT22;62824;52.994;-3.936;2023-02-20T03:49:48;8.20;99.90
74384;DHT22;62824;52.994;-3.936;2023-02-20T03:52:15;8.20;99.90
74384;DHT22;62824;52.994;-3.936;2023-02-20T03:54:42;8.20;99.90
74384;DHT22;62824;52.994;-3.936;2023-02-20T03:57:14;8.20;99.90
74384;DHT22;62824;52.994;-3.936;2023-02-20T03:59:49;8.20;99.90
74384;DHT22;62824;52.994;-3.936;2023-02-20T04:02:21;8.20;99.90
74384;DHT22;62824;52.994;-3.936;2023-02-20T04:04:51;8.20;99.90
74384;DHT22;62824;52.994;-3.936;2023-02-20T04:07:26;8.20;99.90
74384;DHT22;62824;52.994;-3.936;2023-02-20T04:09:53;8.20;99.90
74384;DHT22;62824;52.994;-3.936;2023-02-20T04:12:26;8.20;99.90
74384;DHT22;62824;52.994;-3.936;2023-02-20T04:14:54;8.20;99.90
74384;DHT22;62824;52.994;-3.936;2023-02-20T04:17:25;8.30;99.90
74384;DHT22;62824;52.994;-3.936;2023-02-20T04:19:53;8.30;99.90
74384;DHT22;62824;52.994;-3.936;2023-02-20T04:22:24;8.30;99.90
74384;DHT22;62824;52.994;-3.936;2023-02-20T04:25:02;8.30;99.90
74384;DHT22;62824;52.994;-3.936;2023-02-20T04:27:30;8.30;99.90
74384;DHT22;62824;52.994;-3.936;2023-02-20T04:29:57;8.30;99.90
74384;DHT22;62824;52.994;-3.936;2023-02-20T04:32:22;8.30;99.90
74384;DHT22;62824;52.994;-3.936;2023-02-20T04:34:48;8.30;99.90
74384;DHT22;62824;52.994;-3.936;2023-02-20T04:37:16;8.30;99.90
74384;DHT22;62824;52.994;-3.936;2023-02-20T04:39:43;8.30;99.90
74384;DHT22;62824;52.994;-3.936;2023-02-20T04:42:09;8.20;99.90
74384;DHT22;62824;52.994;-3.936;2023-02-20T04:44:35;8.20;99.90
74384;DHT22;62824;52.994;-3.936;2023-02-20T04:47:05;8.20;99.90
74384;DHT22;62824;52.994;-3.936;2023-02-20T04:49:31;8.20;99.90
74384;DHT22;62824;52.994;-3.936;2023-02-20T04:51:58;8.30;99.90
74384;DHT22;62824;52.994;-3.936;2023-02-20T04:54:24;8.20;99.90
74384;DHT22;62824;52.994;-3.936;2023-02-20T04:56:49;8.30;99.90
74384;DHT22;62824;52.994;-3.936;2023-02-20T04:59:15;8.30;99.90
74384;DHT22;62824;52.994;-3.936;2023-02-20T05:01:41;8.30;99.90
74384;DHT22;62824;52.994;-3.936;2023-02-20T05:04:15;8.30;99.90
74384;DHT22;62824;52.994;-3.936;2023-02-20T05:06:42;8.30;99.90
74384;DHT22;62824;52.994;-3.936;2023-02-20T05:09:08;8.30;99.90
74384;DHT22;62824;52.994;-3.936;2023-02-20T05:11:36;8.30;99.90
74384;DHT22;62824;52.994;-3.936;2023-02-20T05:14:03;8.30;99.90
74384;DHT22;62824;52.994;-3.936;2023-02-20T05:16:28;8.30;99.90
74384;DHT22;62824;52.994;-3.936;2023-02-20T05:18:54;8.30;99.90
74384;DHT22;62824;52.994;-3.936;2023-02-20T05:21:20;8.40;99.90
74384;DHT22;62824;52.994;-3.936;2023-02-20T05:24:05;8.30;99.90
74384;DHT22;62824;52.994;-3.936;2023-02-20T05:26:31;8.30;99.90
74384;DHT22;62824;52.994;-3.936;2023-02-20T05:28:57;8.30;99.90
74384;DHT22;62824;52.994;-3.936;2023-02-20T05:31:22;8.40;99.90
74384;DHT22;62824;52.994;-3.936;2023-02-20T05:33:48;8.40;99.90
74384;DHT22;62824;52.994;-3.936;2023-02-20T05:36:15;8.30;99.90
74384;DHT22;62824;52.994;-3.936;2023-02-20T05:38:41;8.40;99.90
74384;DHT22;62824;52.994;-3.936;2023-02-20T05:41:15;8.30;99.90
74384;DHT22;62824;52.994;-3.936;2023-02-20T05:43:41;8.40;99.90
74384;DHT22;62824;52.994;-3.936;2023-02-20T05:46:07;8.40;99.90
74384;DHT22;62824;52.994;-3.936;2023-02-20T05:48:33;8.30;99.90
74384;DHT22;62824;52.994;-3.936;2023-02-20T05:50:58;8.30;99.90
74384;DHT22;62824;52.994;-3.936;2023-02-20T05:53:28;8.30;99.90
74384;DHT22;62824;52.994;-3.936;2023-02-20T05:55:54;8.40;99.90
74384;DHT22;62824;52.994;-3.936;2023-02-20T05:58:20;8.40;99.90
74384;DHT22;62824;52.994;-3.936;2023-02-20T06:00:46;8.30;99.90
74384;DHT22;62824;52.994;-3.936;2023-02-20T06:03:16;8.40;99.90
74384;DHT22;62824;52.994;-3.936;2023-02-20T06:05:41;8.30;99.90
74384;DHT22;62824;52.994;-3.936;2023-02-20T06:08:07;8.40;99.90
74384;DHT22;62824;52.994;-3.936;2023-02-20T06:10:33;8.30;99.90
74384;DHT22;62824;52.994;-3.936;2023-02-20T06:12:59;8.40;99.90
74384;DHT22;62824;52.994;-3.936;2023-02-20T06:15:25;8.40;99.90
74384;DHT22;62824;52.994;-3.936;2023-02-20T06:17:51;8.40;99.90
74384;DHT22;62824;52.994;-3.936;2023-02-20T06:20:17;8.40;99.90
74384;DHT22;62824;52.994;-3.936;2023-02-20T06:22:43;8.30;99.90
74384;DHT22;62824;52.994;-3.936;2023-02-20T06:25:09;8.30;99.90
74384;DHT22;62824;52.994;-3.936;2023-02-20T06:27:37;8.30;99.90
74384;DHT22;62824;52.994;-3.936;2023-02-20T06:30:04;8.40;99.90
74384;DHT22;62824;52.994;-3.936;2023-02-20T06:32:30;8.40;99.90
74384;DHT22;62824;52.994;-3.936;2023-02-20T06:34:56;8.30;99.90
74384;DHT22;62824;52.994;-3.936;2023-02-20T06:37:21;8.30;99.90
74384;DHT22;62824;52.994;-3.936;2023-02-20T06:39:47;8.30;99.90
74384;DHT22;62824;52.994;-3.936;2023-02-20T06:42:14;8.30;99.90
74384;DHT22;62824;52.994;-3.936;2023-02-20T06:44:40;8.30;99.90
74384;DHT22;62824;52.994;-3.936;2023-02-20T06:47:06;8.30;99.90
74384;DHT22;62824;52.994;-3.936;2023-02-20T06:49:34;8.30;99.90
74384;DHT22;62824;52.994;-3.936;2023-02-20T06:52:02;8.30;99.90
74384;DHT22;62824;52.994;-3.936;2023-02-20T06:54:28;8.30;99.90
74384;DHT22;62824;52.994;-3.936;2023-02-20T06:56:54;8.30;99.90
74384;DHT22;62824;52.994;-3.936;2023-02-20T06:59:22;8.30;99.90
74384;DHT22;62824;52.994;-3.936;2023-02-20T07:01:48;8.30;99.90
74384;DHT22;62824;52.994;-3.936;2023-02-20T07:04:22;8.30;99.90
74384;DHT22;62824;52.994;-3.936;2023-02-20T07:06:48;8.30;99.90
74384;DHT22;62824;52.994;-3.936;2023-02-20T07:09:15;8.30;99.90
74384;DHT22;62824;52.994;-3.936;2023-02-20T07:11:41;8.30;99.90
74384;DHT22;62824;52.994;-3.936;2023-02-20T07:14:06;8.30;99.90
74384;DHT22;62824;52.994;-3.936;2023-02-20T07:16:32;8.30;99.90
74384;DHT22;62824;52.994;-3.936;2023-02-20T07:18:58;8.30;99.90
74384;DHT22;62824;52.994;-3.936;2023-02-20T07:21:24;8.30;99.90
74384;DHT22;62824;52.994;-3.936;2023-02-20T07:23:50;8.30;99.90
74384;DHT22;62824;52.994;-3.936;2023-02-20T07:26:21;8.40;99.90
74384;DHT22;62824;52.994;-3.936;2023-02-20T07:28:47;8.40;99.90
74384;DHT22;62824;52.994;-3.936;2023-02-20T07:31:13;8.40;99.90
74384;DHT22;62824;52.994;-3.936;2023-02-20T07:33:39;8.40;99.90
74384;DHT22;62824;52.994;-3.936;2023-02-20T07:36:09;8.40;99.90
74384;DHT22;62824;52.994;-3.936;2023-02-20T07:38:35;8.50;99.90
74384;DHT22;62824;52.994;-3.936;2023-02-20T07:41:01;8.40;99.90
74384;DHT22;62824;52.994;-3.936;2023-02-20T07:43:26;8.40;99.90
74384;DHT22;62824;52.994;-3.936;2023-02-20T07:45:52;8.40;99.90
74384;DHT22;62824;52.994;-3.936;2023-02-20T07:48:18;8.40;99.90
74384;DHT22;62824;52.994;-3.936;2023-02-20T07:50:43;8.40;99.90
74384;DHT22;62824;52.994;-3.936;2023-02-20T07:53:13;8.40;99.90
74384;DHT22;62824;52.994;-3.936;2023-02-20T07:55:39;8.50;99.90
74384;DHT22;62824;52.994;-3.936;2023-02-20T07:58:05;8.40;99.90
74384;DHT22;62824;52.994;-3.936;2023-02-20T08:00:30;8.40;99.90
74384;DHT22;62824;52.994;-3.936;2023-02-20T08:02:56;8.40;99.90
74384;DHT22;62824;52.994;-3.936;2023-02-20T08:05:24;8.50;99.90
74384;DHT22;62824;52.994;-3.936;2023-02-20T08:07:50;8.50;99.90
74384;DHT22;62824;52.994;-3.936;2023-02-20T08:10:19;8.50;99.90
74384;DHT22;62824;52.994;-3.936;2023-02-20T08:12:46;8.50;99.90
74384;DHT22;62824;52.994;-3.936;2023-02-20T08:15:30;8.50;99.90
74384;DHT22;62824;52.994;-3.936;2023-02-20T08:17:55;8.50;99.90
74384;DHT22;62824;52.994;-3.936;2023-02-20T08:20:21;8.50;99.90
74384;DHT22;62824;52.994;-3.936;2023-02-20T08:22:48;8.50;99.90
74384;DHT22;62824;52.994;-3.936;2023-02-20T08:25:16;8.50;99.90
74384;DHT22;62824;52.994;-3.936;2023-02-20T08:27:44;8.50;99.90
74384;DHT22;62824;52.994;-3.936;2023-02-20T08:30:25;8.50;99.90
74384;DHT22;62824;52.994;-3.936;2023-02-20T08:32:52;8.50;99.90
74384;DHT22;62824;52.994;-3.936;2023-02-20T08:35:18;8.50;99.90
74384;DHT22;62824;52.994;-3.936;2023-02-20T08:37:44;8.50;99.90
74384;DHT22;62824;52.994;-3.936;2023-02-20T08:40:11;8.50;99.90
74384;DHT22;62824;52.994;-3.936;2023-02-20T08:42:37;8.60;99.90
74384;DHT22;62824;52.994;-3.936;2023-02-20T08:45:05;8.60;99.90
74384;DHT22;62824;52.994;-3.936;2023-02-20T08:47:32;8.50;99.90
74384;DHT22;62824;52.994;-3.936;2023-02-20T08:49:57;8.60;99.90
74384;DHT22;62824;52.994;-3.936;2023-02-20T08:52:23;8.60;99.90
74384;DHT22;62824;52.994;-3.936;2023-02-20T08:54:49;8.60;99.90
74384;DHT22;62824;52.994;-3.936;2023-02-20T08:57:16;8.60;99.90
74384;DHT22;62824;52.994;-3.936;2023-02-20T08:59:42;8.60;99.90
74384;DHT22;62824;52.994;-3.936;2023-02-20T09:02:18;8.60;99.90
74384;DHT22;62824;52.994;-3.936;2023-02-20T09:04:44;8.60;99.90
74384;DHT22;62824;52.994;-3.936;2023-02-20T09:07:11;8.60;99.90
74384;DHT22;62824;52.994;-3.936;2023-02-20T09:09:37;8.60;99.90
74384;DHT22;62824;52.994;-3.936;2023-02-20T09:12:04;8.60;99.90
74384;DHT22;62824;52.994;-3.936;2023-02-20T09:14:30;8.60;99.90
74384;DHT22;62824;52.994;-3.936;2023-02-20T09:16:55;8.60;99.90
74384;DHT22;62824;52.994;-3.936;2023-02-20T09:19:21;8.60;99.90
74384;DHT22;62824;52.994;-3.936;2023-02-20T09:21:48;8.60;99.90
74384;DHT22;62824;52.994;-3.936;2023-02-20T09:24:14;8.60;99.90
74384;DHT22;62824;52.994;-3.936;2023-02-20T09:26:40;8.60;99.90
74384;DHT22;62824;52.994;-3.936;2023-02-20T09:29:06;8.60;99.90
74384;DHT22;62824;52.994;-3.936;2023-02-20T09:31:32;8.60;99.90
74384;DHT22;62824;52.994;-3.936;2023-02-20T09:33:57;8.60;99.90
74384;DHT22;62824;52.994;-3.936;2023-02-20T09:36:23;8.70;99.90
74384;DHT22;62824;52.994;-3.936;2023-02-20T09:38:49;8.70;99.90
74384;DHT22;62824;52.994;-3.936;2023-02-20T09:44:31;8.70;99.90
74384;DHT22;62824;52.994;-3.936;2023-02-20T09:49:46;8.70;99.90
74384;DHT22;62824;52.994;-3.936;2023-02-20T09:52:14;8.60;99.90
74384;DHT22;62824;52.994;-3.936;2023-02-20T09:54:57;8.60;99.90
74384;DHT22;62824;52.994;-3.936;2023-02-20T09:57:26;8.70;99.90
74384;DHT22;62824;52.994;-3.936;2023-02-20T10:02:30;8.60;99.90
74384;DHT22;62824;52.994;-3.936;2023-02-20T10:05:00;8.70;99.90
74384;DHT22;62824;52.994;-3.936;2023-02-20T10:07:37;8.60;99.90
74384;DHT22;62824;52.994;-3.936;2023-02-20T10:15:52;8.60;99.90
74384;DHT22;62824;52.994;-3.936;2023-02-20T10:23:48;8.60;99.90
74384;DHT22;62824;52.994;-3.936;2023-02-20T10:26:26;8.70;99.90
74384;DHT22;62824;52.994;-3.936;2023-02-20T10:28:55;8.70;99.90
74384;DHT22;62824;52.994;-3.936;2023-02-20T10:31:36;8.70;99.90
74384;DHT22;62824;52.994;-3.936;2023-02-20T10:34:10;8.70;99.90
74384;DHT22;62824;52.994;-3.936;2023-02-20T10:36:43;8.70;99.90
74384;DHT22;62824;52.994;-3.936;2023-02-20T10:39:17;8.70;99.90
74384;DHT22;62824;52.994;-3.936;2023-02-20T10:44:28;8.70;99.90
74384;DHT22;62824;52.994;-3.936;2023-02-20T10:47:11;8.70;99.90
74384;DHT22;62824;52.994;-3.936;2023-02-20T10:49:57;8.70;99.90
74384;DHT22;62824;52.994;-3.936;2023-02-20T10:52:36;8.80;99.90
74384;DHT22;62824;52.994;-3.936;2023-02-20T10:55:39;8.70;99.90
74384;DHT22;62824;52.994;-3.936;2023-02-20T10:58:29;8.80;99.90
74384;DHT22;62824;52.994;-3.936;2023-02-20T11:01:02;8.80;99.90
74384;DHT22;62824;52.994;-3.936;2023-02-20T11:03:47;8.80;99.90
74384;DHT22;62824;52.994;-3.936;2023-02-20T11:06:19;8.80;99.90
74384;DHT22;62824;52.994;-3.936;2023-02-20T11:08:45;8.80;99.90
74384;DHT22;62824;52.994;-3.936;2023-02-20T11:12:01;8.80;99.90
74384;DHT22;62824;52.994;-3.936;2023-02-20T11:14:21;8.80;99.90
74384;DHT22;62824;52.994;-3.936;2023-02-20T11:22:11;8.70;99.90
74384;DHT22;62824;52.994;-3.936;2023-02-20T11:24:38;8.70;99.90
74384;DHT22;62824;52.994;-3.936;2023-02-20T11:29:50;8.70;99.90
74384;DHT22;62824;52.994;-3.936;2023-02-20T11:37:46;8.70;99.90
74384;DHT22;62824;52.994;-3.936;2023-02-20T11:40:23;8.70;99.90
74384;DHT22;62824;52.994;-3.936;2023-02-20T11:42:50;8.80;99.90
74384;DHT22;62824;52.994;-3.936;2023-02-20T11:45:22;8.80;99.90
74384;DHT22;62824;52.994;-3.936;2023-02-20T11:48:09;8.70;99.90
74384;DHT22;62824;52.994;-3.936;2023-02-20T11:53:08;8.80;99.90
74384;DHT22;62824;52.994;-3.936;2023-02-20T11:55:40;8.80;99.90
74384;DHT22;62824;52.994;-3.936;2023-02-20T11:58:19;8.80;99.90
74384;DHT22;62824;52.994;-3.936;2023-02-20T12:00:47;8.70;99.90
74384;DHT22;62824;52.994;-3.936;2023-02-20T12:03:21;8.80;99.90
74384;DHT22;62824;52.994;-3.936;2023-02-20T12:05:48;8.80;99.90
74384;DHT22;62824;52.994;-3.936;2023-02-20T12:08:55;8.80;99.90
74384;DHT22;62824;52.994;-3.936;2023-02-20T12:11:26;8.80;99.90
74384;DHT22;62824;52.994;-3.936;2023-02-20T12:13:54;8.90;99.90
74384;DHT22;62824;52.994;-3.936;2023-02-20T12:16:53;8.90;99.90
74384;DHT22;62824;52.994;-3.936;2023-02-20T12:22:17;9.00;99.90
74384;DHT22;62824;52.994;-3.936;2023-02-20T12:33:54;9.00;99.90
74384;DHT22;62824;52.994;-3.936;2023-02-20T12:36:46;9.00;99.90
74384;DHT22;62824;52.994;-3.936;2023-02-20T12:45:13;9.00;99.90
74384;DHT22;62824;52.994;-3.936;2023-02-20T12:47:43;8.90;99.90
74384;DHT22;62824;52.994;-3.936;2023-02-20T13:01:06;9.00;99.90
74384;DHT22;62824;52.994;-3.936;2023-02-20T13:06:00;9.10;99.90
74384;DHT22;62824;52.994;-3.936;2023-02-20T13:08:27;9.00;99.90
74384;DHT22;62824;52.994;-3.936;2023-02-20T13:11:00;9.10;99.90
74384;DHT22;62824;52.994;-3.936;2023-02-20T13:13:30;9.10;99.90
74384;DHT22;62824;52.994;-3.936;2023-02-20T13:16:06;9.10;99.90
74384;DHT22;62824;52.994;-3.936;2023-02-20T13:18:44;9.10;99.90
74384;DHT22;62824;52.994;-3.936;2023-02-20T13:21:17;9.10;99.90
74384;DHT22;62824;52.994;-3.936;2023-02-20T13:23:45;9.10;99.90
74384;DHT22;62824;52.994;-3.936;2023-02-20T13:29:14;9.10;99.90
74384;DHT22;62824;52.994;-3.936;2023-02-20T13:31:51;9.10;99.90
74384;DHT22;62824;52.994;-3.936;2023-02-20T13:36:44;9.00;99.90
74384;DHT22;62824;52.994;-3.936;2023-02-20T13:57:44;9.20;99.90
74384;DHT22;62824;52.994;-3.936;2023-02-20T14:02:55;9.30;99.90
74384;DHT22;62824;52.994;-3.936;2023-02-20T14:05:28;9.20;99.90
74384;DHT22;62824;52.994;-3.936;2023-02-20T14:07:56;9.30;99.90
74384;DHT22;62824;52.994;-3.936;2023-02-20T14:10:31;9.30;99.90
74384;DHT22;62824;52.994;-3.936;2023-02-20T14:15:33;9.40;99.90
74384;DHT22;62824;52.994;-3.936;2023-02-20T14:18:30;9.40;99.90
74384;DHT22;62824;52.994;-3.936;2023-02-20T14:21:07;9.40;99.90
74384;DHT22;62824;52.994;-3.936;2023-02-20T14:23:34;9.40;99.90
74384;DHT22;62824;52.994;-3.936;2023-02-20T14:26:19;9.40;99.90
74384;DHT22;62824;52.994;-3.936;2023-02-20T14:28:48;9.50;99.90
74384;DHT22;62824;52.994;-3.936;2023-02-20T14:31:29;9.50;99.90
74384;DHT22;62824;52.994;-3.936;2023-02-20T14:33:57;9.50;99.90
74384;DHT22;62824;52.994;-3.936;2023-02-20T14:41:50;9.50;99.90
74384;DHT22;62824;52.994;-3.936;2023-02-20T14:44:16;9.50;99.90
74384;DHT22;62824;52.994;-3.936;2023-02-20T14:46:44;9.50;99.90
74384;DHT22;62824;52.994;-3.936;2023-02-20T14:49:13;9.40;99.90
74384;DHT22;62824;52.994;-3.936;2023-02-20T14:51:39;9.40;99.90
74384;DHT22;62824;52.994;-3.936;2023-02-20T14:54:24;9.50;99.90
74384;DHT22;62824;52.994;-3.936;2023-02-20T14:56:51;9.50;99.90
74384;DHT22;62824;52.994;-3.936;2023-02-20T15:02:12;9.50;99.90
74384;DHT22;62824;52.994;-3.936;2023-02-20T15:05:01;9.40;99.90
74384;DHT22;62824;52.994;-3.936;2023-02-20T15:07:28;9.40;99.90
74384;DHT22;62824;52.994;-3.936;2023-02-20T15:09:56;9.40;99.90
74384;DHT22;62824;52.994;-3.936;2023-02-20T15:12:26;9.50;99.90
74384;DHT22;62824;52.994;-3.936;2023-02-20T15:14:57;9.50;99.90
74384;DHT22;62824;52.994;-3.936;2023-02-20T15:17:30;9.40;99.90
74384;DHT22;62824;52.994;-3.936;2023-02-20T15:19:59;9.50;99.90
74384;DHT22;62824;52.994;-3.936;2023-02-20T15:22:33;9.50;99.90
74384;DHT22;62824;52.994;-3.936;2023-02-20T15:33:32;9.40;99.90
74384;DHT22;62824;52.994;-3.936;2023-02-20T15:35:59;9.40;99.90
74384;DHT22;62824;52.994;-3.936;2023-02-20T15:38:30;9.40;99.90
74384;DHT22;62824;52.994;-3.936;2023-02-20T15:40:58;9.40;99.90
74384;DHT22;62824;52.994;-3.936;2023-02-20T15:43:25;9.30;99.90
74384;DHT22;62824;52.994;-3.936;2023-02-20T15:45:50;9.20;99.90
74384;DHT22;62824;52.994;-3.936;2023-02-20T15:48:16;9.20;99.90
74384;DHT22;62824;52.994;-3.936;2023-02-20T15:50:42;9.20;99.90
74384;DHT22;62824;52.994;-3.936;2023-02-20T15:53:17;9.20;99.90
74384;DHT22;62824;52.994;-3.936;2023-02-20T15:55:44;9.20;99.90
74384;DHT22;62824;52.994;-3.936;2023-02-20T15:58:28;9.20;99.90
74384;DHT22;62824;52.994;-3.936;2023-02-20T16:00:54;9.20;99.90
74384;DHT22;62824;52.994;-3.936;2023-02-20T16:03:22;9.10;99.90
74384;DHT22;62824;52.994;-3.936;2023-02-20T16:05:48;9.10;99.90
74384;DHT22;62824;52.994;-3.936;2023-02-20T16:08:14;9.10;99.90
74384;DHT22;62824;52.994;-3.936;2023-02-20T16:10:39;9.10;99.90
74384;DHT22;62824;52.994;-3.936;2023-02-20T16:15:49;9.20;99.90
74384;DHT22;62824;52.994;-3.936;2023-02-20T16:18:15;9.10;99.90
74384;DHT22;62824;52.994;-3.936;2023-02-20T16:20:40;9.20;99.90
74384;DHT22;62824;52.994;-3.936;2023-02-20T16:23:06;9.10;99.90
74384;DHT22;62824;52.994;-3.936;2023-02-20T16:25:33;9.20;99.90
74384;DHT22;62824;52.994;-3.936;2023-02-20T16:28:00;9.30;99.90
74384;DHT22;62824;52.994;-3.936;2023-02-20T16:30:32;9.30;99.90
74384;DHT22;62824;52.994;-3.936;2023-02-20T16:33:01;9.40;99.90
74384;DHT22;62824;52.994;-3.936;2023-02-20T16:35:27;9.40;99.90
74384;DHT22;62824;52.994;-3.936;2023-02-20T16:37:53;9.30;99.90
74384;DHT22;62824;52.994;-3.936;2023-02-20T16:40:19;9.30;99.90
74384;DHT22;62824;52.994;-3.936;2023-02-20T16:42:45;9.30;99.90
74384;DHT22;62824;52.994;-3.936;2023-02-20T16:45:13;9.30;99.90
74384;DHT22;62824;52.994;-3.936;2023-02-20T16:47:40;9.30;99.90
74384;DHT22;62824;52.994;-3.936;2023-02-20T16:50:10;9.30;99.90
74384;DHT22;62824;52.994;-3.936;2023-02-20T16:52:37;9.30;99.90
74384;DHT22;62824;52.994;-3.936;2023-02-20T16:55:27;9.30;99.90
74384;DHT22;62824;52.994;-3.936;2023-02-20T16:57:51;9.30;99.90
74384;DHT22;62824;52.994;-3.936;2023-02-20T17:00:20;9.30;99.90
74384;DHT22;62824;52.994;-3.936;2023-02-20T17:02:46;9.20;99.90
74384;DHT22;62824;52.994;-3.936;2023-02-20T17:05:12;9.20;99.90
74384;DHT22;62824;52.994;-3.936;2023-02-20T17:07:39;9.20;99.90
74384;DHT22;62824;52.994;-3.936;2023-02-20T17:10:06;9.30;99.90
74384;DHT22;62824;52.994;-3.936;2023-02-20T17:12:33;9.20;99.90
74384;DHT22;62824;52.994;-3.936;2023-02-20T17:14:59;9.20;99.90
74384;DHT22;62824;52.994;-3.936;2023-02-20T17:17:26;9.10;99.90
74384;DHT22;62824;52.994;-3.936;2023-02-20T17:19:53;9.10;99.90
74384;DHT22;62824;52.994;-3.936;2023-02-20T17:22:46;9.10;99.90
74384;DHT22;62824;52.994;-3.936;2023-02-20T17:25:18;9.00;99.90
74384;DHT22;62824;52.994;-3.936;2023-02-20T17:27:45;9.00;99.90
74384;DHT22;62824;52.994;-3.936;2023-02-20T17:30:12;9.00;99.90
74384;DHT22;62824;52.994;-3.936;2023-02-20T17:32:37;9.00;99.90
74384;DHT22;62824;52.994;-3.936;2023-02-20T17:35:04;9.10;99.90
74384;DHT22;62824;52.994;-3.936;2023-02-20T17:37:30;9.00;99.90
74384;DHT22;62824;52.994;-3.936;2023-02-20T17:39:57;9.00;99.90
74384;DHT22;62824;52.994;-3.936;2023-02-20T17:42:23;9.00;99.90
74384;DHT22;62824;52.994;-3.936;2023-02-20T17:44:49;9.00;99.90
74384;DHT22;62824;52.994;-3.936;2023-02-20T17:47:16;9.00;99.90
74384;DHT22;62824;52.994;-3.936;2023-02-20T17:49:41;9.00;99.90
74384;DHT22;62824;52.994;-3.936;2023-02-20T17:52:08;9.00;99.90
74384;DHT22;62824;52.994;-3.936;2023-02-20T17:54:34;9.00;99.90
74384;DHT22;62824;52.994;-3.936;2023-02-20T17:57:01;9.10;99.90
74384;DHT22;62824;52.994;-3.936;2023-02-20T17:59:27;9.00;99.90
74384;DHT22;62824;52.994;-3.936;2023-02-20T18:01:54;9.00;99.90
74384;DHT22;62824;52.994;-3.936;2023-02-20T18:04:20;8.90;99.90
74384;DHT22;62824;52.994;-3.936;2023-02-20T18:06:46;8.90;99.90
74384;DHT22;62824;52.994;-3.936;2023-02-20T18:09:15;8.90;99.90
74384;DHT22;62824;52.994;-3.936;2023-02-20T18:11:42;8.90;99.90
74384;DHT22;62824;52.994;-3.936;2023-02-20T18:14:09;8.80;99.90